Time;durP1;ratioP1;P1;durP2;ratioP2;P2;SDS_P1;SDS_P2;PMS_P1;PMS_P2;Temp;Humidity;BMP_temperature;BMP_pressure;BME280_temperature;BME280_humidity;BME280_pressure;Samples;Min_cycle;Max_cycle;Signal;HPM_P1;HPM_P2
2023/07/02 00:01:40;;;;;;;18.65;8.88;;;17.50;99.90;;;;;;5044787;28;20507;-80
2023/07/02 00:04:08;;;;;;;18.50;7.97;;;17.60;99.90;;;;;;5042469;28;20077;-81
2023/07/02 00:06:40;;;;;;;20.30;8.73;;;17.60;99.90;;;;;;5051120;28;20405;-80
2023/07/02 00:09:06;;;;;;;19.83;8.45;;;17.70;99.90;;;;;;5046158;28;20056;-81
2023/07/02 00:11:32;;;;;;;18.20;8.10;;;17.60;99.90;;;;;;5073852;28;20050;-80
2023/07/02 00:13:57;;;;;;;20.95;9.10;;;17.60;99.90;;;;;;5040599;28;20048;-80
2023/07/02 00:16:23;;;;;;;17.27;7.47;;;17.50;99.90;;;;;;5044968;28;20029;-79
2023/07/02 00:18:52;;;;;;;19.67;8.68;;;17.40;99.90;;;;;;5044466;28;20056;-79
2023/07/02 00:21:19;;;;;;;20.63;8.25;;;17.40;99.90;;;;;;5042231;28;20049;-79
2023/07/02 00:23:45;;;;;;;19.92;7.68;;;17.50;99.90;;;;;;5042986;28;20068;-79
2023/07/02 00:26:10;;;;;;;19.85;7.75;;;17.50;99.90;;;;;;5041258;28;20046;-79
2023/07/02 00:28:36;;;;;;;21.88;8.40;;;17.50;99.90;;;;;;5038358;28;20263;-80
2023/07/02 00:31:02;;;;;;;21.92;9.02;;;17.40;99.90;;;;;;5041738;28;20413;-81
2023/07/02 00:33:31;;;;;;;18.10;6.93;;;17.40;99.90;;;;;;5041995;28;20575;-79
2023/07/02 00:35:57;;;;;;;18.95;8.45;;;17.50;99.90;;;;;;5041189;28;20091;-79
2023/07/02 00:38:23;;;;;;;18.20;7.90;;;17.50;99.90;;;;;;5047971;28;20052;-79
2023/07/02 00:40:49;;;;;;;21.58;7.75;;;17.50;99.90;;;;;;5041909;28;20044;-79
2023/07/02 00:43:14;;;;;;;22.75;8.75;;;17.50;99.90;;;;;;5044037;28;20053;-78
2023/07/02 00:45:40;;;;;;;16.95;7.50;;;17.50;99.90;;;;;;5041795;28;20416;-79
2023/07/02 00:48:06;;;;;;;24.05;8.90;;;17.50;99.90;;;;;;5043043;28;20045;-80
2023/07/02 00:50:32;;;;;;;21.85;8.18;;;17.50;99.90;;;;;;5036776;28;20111;-78
2023/07/02 00:52:58;;;;;;;21.38;7.85;;;17.40;99.90;;;;;;5043403;28;20033;-79
2023/07/02 00:55:24;;;;;;;21.17;8.80;;;17.40;99.90;;;;;;5042235;28;21091;-78
2023/07/02 00:57:50;;;;;;;19.63;8.32;;;17.40;99.90;;;;;;5038458;28;20043;-79
2023/07/02 01:00:17;;;;;;;23.23;8.48;;;;;;;;;;5043605;28;20037;-77
2023/07/02 01:02:43;;;;;;;18.23;7.35;;;17.40;99.90;;;;;;5072019;28;20511;-77
2023/07/02 01:05:14;;;;;;;18.48;7.40;;;17.40;99.90;;;;;;5041958;28;20091;-78
2023/07/02 01:07:40;;;;;;;21.25;8.05;;;17.30;99.90;;;;;;5043288;28;20126;-78
2023/07/02 01:10:06;;;;;;;18.80;7.75;;;17.20;99.90;;;;;;5040354;28;21853;-79
2023/07/02 01:12:32;;;;;;;19.00;8.00;;;17.30;99.90;;;;;;5042028;28;20395;-78
2023/07/02 01:15:03;;;;;;;16.58;7.75;;;17.20;99.90;;;;;;5043275;28;20041;-78
2023/07/02 01:17:37;;;;;;;24.92;9.30;;;17.30;99.90;;;;;;5039206;28;20045;-77
2023/07/02 01:20:08;;;;;;;19.75;8.55;;;17.20;99.90;;;;;;5045664;28;20040;-77
2023/07/02 01:22:34;;;;;;;21.85;9.02;;;17.10;99.90;;;;;;5036806;28;20053;-78
2023/07/02 01:25:00;;;;;;;23.58;9.00;;;17.10;99.90;;;;;;5041796;28;20408;-77
2023/07/02 01:27:32;;;;;;;21.23;7.50;;;17.20;99.90;;;;;;5076799;28;20174;-78
2023/07/02 01:29:57;;;;;;;20.50;8.55;;;17.10;99.90;;;;;;5043025;28;20049;-78
2023/07/02 01:32:23;;;;;;;18.35;8.80;;;17.10;99.90;;;;;;5043122;28;20075;-78
2023/07/02 01:34:49;;;;;;;18.17;8.93;;;17.10;99.90;;;;;;5042462;28;20507;-78
2023/07/02 01:37:16;;;;;;;20.85;8.35;;;17.10;99.90;;;;;;5043293;28;20052;-78
2023/07/02 01:39:42;;;;;;;15.27;7.43;;;17.00;99.90;;;;;;5041799;28;20112;-77
2023/07/02 01:42:12;;;;;;;21.05;7.75;;;17.10;99.90;;;;;;5040077;28;20083;-77
2023/07/02 01:44:38;;;;;;;19.63;8.05;;;17.10;99.90;;;;;;5043241;28;20049;-77
2023/07/02 01:47:05;;;;;;;22.35;8.63;;;17.00;99.90;;;;;;5046707;28;20536;-77
2023/07/02 01:49:30;;;;;;;22.25;8.07;;;17.00;99.90;;;;;;5044679;28;20055;-77
2023/07/02 01:51:57;;;;;;;20.23;9.23;;;17.00;99.90;;;;;;5038942;28;20052;-78
2023/07/02 01:54:26;;;;;;;21.15;8.55;;;17.00;99.90;;;;;;5042383;28;20045;-77
2023/07/02 01:56:52;;;;;;;17.20;7.10;;;16.90;99.90;;;;;;5038858;28;20082;-78
2023/07/02 01:59:18;;;;;;;18.48;6.60;;;16.90;99.90;;;;;;5038174;28;20041;-78
2023/07/02 02:01:43;;;;;;;18.60;8.02;;;17.00;99.90;;;;;;5048217;28;20060;-77
2023/07/02 02:04:10;;;;;;;19.67;8.73;;;17.00;99.90;;;;;;5051878;28;20041;-77
2023/07/02 02:06:36;;;;;;;20.88;8.02;;;17.10;99.90;;;;;;5054674;28;20037;-78
2023/07/02 02:09:05;;;;;;;21.15;8.07;;;17.00;99.90;;;;;;5049161;28;20087;-77
2023/07/02 02:11:31;;;;;;;19.25;8.82;;;17.00;99.90;;;;;;5048615;28;20068;-77
2023/07/02 02:13:58;;;;;;;17.83;7.38;;;17.00;99.90;;;;;;5051107;28;20397;-77
2023/07/02 02:16:24;;;;;;;17.83;8.10;;;17.00;99.90;;;;;;5036569;28;20472;-77
2023/07/02 02:18:53;;;;;;;13.05;7.03;;;17.10;99.90;;;;;;5044608;28;20142;-77
2023/07/02 02:21:19;;;;;;;17.88;7.97;;;17.20;99.90;;;;;;5051147;28;20057;-77
2023/07/02 02:23:45;;;;;;;19.95;7.82;;;17.00;99.90;;;;;;5043543;28;20114;-77
2023/07/02 02:26:11;;;;;;;20.30;7.72;;;16.90;99.90;;;;;;5037452;28;20052;-77
2023/07/02 02:28:37;;;;;;;18.48;7.15;;;17.10;99.90;;;;;;5050479;28;20041;-77
2023/07/02 02:31:03;;;;;;;19.83;8.27;;;17.00;99.90;;;;;;5044712;28;20044;-77
2023/07/02 02:33:29;;;;;;;20.83;8.38;;;16.90;99.90;;;;;;5042041;28;20587;-78
2023/07/02 02:35:55;;;;;;;20.50;8.75;;;16.90;99.90;;;;;;5040844;28;20838;-78
2023/07/02 02:38:20;;;;;;;19.63;7.50;;;17.00;99.90;;;;;;5037924;28;20041;-77
2023/07/02 02:40:46;;;;;;;19.60;7.90;;;17.00;99.90;;;;;;5036513;28;20048;-78
2023/07/02 02:43:12;;;;;;;19.42;8.05;;;17.10;99.90;;;;;;5037850;28;20496;-77
2023/07/02 02:45:38;;;;;;;18.38;7.65;;;17.10;99.90;;;;;;5041287;28;20049;-77
2023/07/02 02:48:04;;;;;;;16.00;7.95;;;17.10;99.90;;;;;;5043148;28;20051;-78
2023/07/02 02:50:29;;;;;;;19.60;7.90;;;17.10;99.90;;;;;;5038782;28;20428;-77
2023/07/02 02:52:55;;;;;;;17.80;7.72;;;17.20;99.90;;;;;;5037973;28;20041;-77
2023/07/02 02:55:21;;;;;;;18.92;7.93;;;17.10;99.90;;;;;;5039770;28;20052;-77
2023/07/02 02:57:46;;;;;;;16.75;7.35;;;17.10;99.90;;;;;;5040834;28;20048;-77
2023/07/02 03:00:12;;;;;;;18.67;6.82;;;17.10;99.90;;;;;;5037504;28;20132;-77
2023/07/02 03:02:38;;;;;;;23.00;8.32;;;17.10;99.90;;;;;;5038049;28;20080;-77
2023/07/02 03:05:06;;;;;;;26.33;8.85;;;17.10;99.90;;;;;;5038586;28;20098;-77
2023/07/02 03:07:32;;;;;;;19.48;7.35;;;17.10;99.90;;;;;;5040287;28;20396;-77
2023/07/02 03:09:58;;;;;;;20.67;7.97;;;17.00;99.90;;;;;;5038586;28;20045;-78
2023/07/02 03:12:25;;;;;;;21.60;8.05;;;17.00;99.90;;;;;;5041774;28;20040;-77
2023/07/02 03:14:54;;;;;;;20.73;8.98;;;17.10;99.90;;;;;;5042561;28;20172;-77
2023/07/02 03:17:20;;;;;;;20.27;7.80;;;17.00;99.90;;;;;;5037920;28;20056;-77
2023/07/02 03:19:46;;;;;;;16.92;7.25;;;17.00;99.90;;;;;;5039148;28;20045;-79
2023/07/02 03:22:12;;;;;;;12.55;5.57;;;17.10;99.90;;;;;;5043233;28;20485;-77
2023/07/02 03:24:38;;;;;;;15.60;7.07;;;17.00;99.90;;;;;;5038987;28;20488;-77
2023/07/02 03:27:04;;;;;;;22.30;6.72;;;16.90;99.90;;;;;;5041732;28;20052;-78
2023/07/02 03:29:29;;;;;;;16.50;6.78;;;16.90;99.90;;;;;;5042278;28;20404;-78
2023/07/02 03:31:55;;;;;;;12.30;5.68;;;16.90;99.90;;;;;;5037135;28;20045;-78
2023/07/02 03:34:23;;;;;;;12.13;5.18;;;16.90;99.90;;;;;;5040269;28;20063;-78
2023/07/02 03:36:49;;;;;;;13.90;5.90;;;;;;;;;;5038732;28;20041;-79
2023/07/02 03:39:16;;;;;;;14.48;6.68;;;;;;;;;;5044784;28;20132;-79
2023/07/02 03:41:42;;;;;;;12.82;5.93;;;;;;;;;;5076946;28;20484;-83
2023/07/02 03:44:08;;;;;;;15.15;6.05;;;;;;;;;;5045846;28;20044;-79
2023/07/02 03:46:34;;;;;;;10.70;4.82;;;;;;;;;;5046446;28;20037;-78
2023/07/02 03:49:00;;;;;;;12.43;5.65;;;16.80;99.90;;;;;;5040626;28;20037;-79
2023/07/02 03:51:25;;;;;;;10.23;4.13;;;16.70;99.90;;;;;;5043941;28;20516;-78
2023/07/02 03:53:51;;;;;;;11.60;5.85;;;16.80;99.90;;;;;;5042198;28;20048;-78
2023/07/02 03:56:17;;;;;;;13.82;5.85;;;16.70;99.90;;;;;;5045859;28;20033;-78
2023/07/02 03:58:42;;;;;;;17.15;6.95;;;16.80;99.90;;;;;;5040568;28;20447;-79
2023/07/02 04:01:08;;;;;;;12.75;6.00;;;16.80;99.90;;;;;;5045555;28;20040;-78
2023/07/02 04:03:34;;;;;;;17.00;7.57;;;16.70;99.90;;;;;;5046585;28;20038;-79
2023/07/02 04:06:00;;;;;;;15.73;7.20;;;16.80;99.90;;;;;;5042653;28;20503;-79
2023/07/02 04:08:27;;;;;;;18.42;6.70;;;16.80;99.90;;;;;;5045322;28;20056;-78
2023/07/02 04:10:54;;;;;;;17.70;8.35;;;16.80;99.90;;;;;;5040949;28;20049;-79
2023/07/02 04:13:20;;;;;;;19.73;6.35;;;16.80;99.90;;;;;;5043988;28;20041;-78
2023/07/02 04:15:45;;;;;;;15.93;5.88;;;16.90;99.90;;;;;;5043073;28;20044;-79
2023/07/02 04:18:11;;;;;;;19.95;6.93;;;;;;;;;;5042367;28;20045;-78
2023/07/02 04:20:38;;;;;;;19.55;5.82;;;16.90;99.90;;;;;;5042614;28;20060;-78
2023/07/02 04:23:05;;;;;;;22.30;7.07;;;16.90;99.90;;;;;;5044568;28;20057;-79
2023/07/02 04:25:31;;;;;;;18.67;7.15;;;16.80;99.90;;;;;;5041245;28;20063;-78
2023/07/02 04:27:58;;;;;;;13.25;6.13;;;16.90;99.90;;;;;;5040892;28;20041;-79
2023/07/02 04:30:24;;;;;;;16.00;6.15;;;;;;;;;;5038870;28;20408;-79
2023/07/02 04:32:53;;;;;;;18.50;6.53;;;16.80;99.90;;;;;;5050462;28;20045;-79
2023/07/02 04:35:19;;;;;;;18.70;7.00;;;16.90;99.90;;;;;;5040125;28;20111;-79
2023/07/02 04:37:45;;;;;;;22.88;5.75;;;16.90;99.90;;;;;;5047493;28;20484;-79
2023/07/02 04:40:11;;;;;;;13.82;5.78;;;17.10;99.90;;;;;;5045854;28;20120;-79
2023/07/02 04:42:37;;;;;;;15.50;6.40;;;16.90;99.90;;;;;;5044622;28;20041;-79
2023/07/02 04:45:08;;;;;;;14.75;6.28;;;17.00;99.90;;;;;;5047281;28;20560;-80
2023/07/02 04:47:34;;;;;;;12.95;5.85;;;16.90;99.90;;;;;;5039976;28;20444;-79
2023/07/02 04:50:00;;;;;;;18.95;6.15;;;17.00;99.90;;;;;;5048867;28;20123;-79
2023/07/02 04:52:26;;;;;;;18.20;5.88;;;17.00;99.90;;;;;;5047533;28;20152;-79
2023/07/02 04:54:51;;;;;;;16.25;6.60;;;16.90;99.90;;;;;;5048944;28;20052;-80
2023/07/02 04:57:17;;;;;;;17.42;6.72;;;;;;;;;;5043289;28;20068;-79
2023/07/02 04:59:43;;;;;;;15.45;5.93;;;16.90;99.90;;;;;;5076228;28;20057;-78
2023/07/02 05:02:09;;;;;;;15.77;6.40;;;16.80;99.90;;;;;;5041970;28;20136;-78
2023/07/02 05:04:37;;;;;;;10.30;4.13;;;16.90;99.90;;;;;;5044519;28;20137;-79
2023/07/02 05:07:04;;;;;;;11.82;5.35;;;16.80;99.90;;;;;;5043889;28;20546;-79
2023/07/02 05:09:30;;;;;;;16.10;6.20;;;16.80;99.90;;;;;;5043142;28;20045;-79
2023/07/02 05:11:56;;;;;;;19.02;6.28;;;16.70;99.90;;;;;;5041461;28;20044;-80
2023/07/02 05:14:22;;;;;;;21.65;6.65;;;16.70;99.90;;;;;;5045963;28;20037;-79
2023/07/02 05:16:48;;;;;;;20.50;6.55;;;16.80;99.90;;;;;;5039693;28;20390;-80
2023/07/02 05:19:14;;;;;;;20.60;6.85;;;16.90;99.90;;;;;;5044029;28;20040;-80
2023/07/02 05:21:40;;;;;;;21.13;7.28;;;16.90;99.90;;;;;;5042852;28;20072;-80
2023/07/02 05:24:05;;;;;;;15.48;6.38;;;17.00;99.90;;;;;;5043076;28;20457;-80
2023/07/02 05:26:32;;;;;;;13.13;5.35;;;16.90;99.90;;;;;;5041498;28;20084;-79
2023/07/02 05:28:58;;;;;;;14.35;4.68;;;16.90;99.90;;;;;;5075490;28;20124;-79
2023/07/02 05:31:23;;;;;;;11.70;4.22;;;16.90;99.90;;;;;;5038450;28;20041;-79
2023/07/02 05:33:49;;;;;;;16.95;5.00;;;17.00;99.90;;;;;;5066711;28;20105;-80
2023/07/02 05:36:15;;;;;;;11.38;4.85;;;16.90;99.90;;;;;;5042490;28;20041;-79
2023/07/02 05:38:40;;;;;;;9.38;4.68;;;16.80;99.90;;;;;;5043529;28;20041;-79
2023/07/02 05:41:06;;;;;;;15.90;5.15;;;16.90;99.90;;;;;;5042999;28;20037;-79
2023/07/02 05:43:32;;;;;;;11.45;4.93;;;16.90;99.90;;;;;;5042365;28;20164;-79
2023/07/02 05:46:01;;;;;;;10.73;4.00;;;16.90;99.90;;;;;;5040503;28;20515;-79
2023/07/02 05:48:27;;;;;;;11.95;4.63;;;16.90;99.90;;;;;;5044082;28;20048;-79
2023/07/02 05:50:54;;;;;;;16.63;4.60;;;16.80;99.90;;;;;;5038977;28;20041;-79
2023/07/02 05:53:22;;;;;;;13.05;5.05;;;16.90;99.90;;;;;;5040087;28;20044;-79
2023/07/02 05:55:48;;;;;;;12.20;5.15;;;16.80;99.90;;;;;;5040554;28;20515;-79
2023/07/02 05:58:13;;;;;;;11.43;4.82;;;16.90;99.90;;;;;;5039225;28;21425;-79
2023/07/02 06:00:41;;;;;;;12.27;4.53;;;16.80;99.90;;;;;;5073020;28;20541;-78
2023/07/02 06:03:07;;;;;;;18.92;5.28;;;16.80;99.90;;;;;;5042010;28;20077;-79
2023/07/02 06:05:33;;;;;;;11.20;4.43;;;16.90;99.90;;;;;;5033935;28;20176;-78
2023/07/02 06:07:58;;;;;;;12.32;4.03;;;16.90;99.90;;;;;;5040564;28;20029;-79
2023/07/02 06:10:24;;;;;;;10.48;4.32;;;16.90;99.90;;;;;;5041457;28;20144;-79
2023/07/02 06:12:50;;;;;;;13.93;4.05;;;16.80;99.90;;;;;;5041458;28;20034;-78
2023/07/02 06:15:15;;;;;;;11.20;4.85;;;16.90;99.90;;;;;;5039260;28;20400;-79
2023/07/02 06:17:41;;;;;;;13.30;4.07;;;16.80;99.90;;;;;;5037455;28;20037;-80
2023/07/02 06:20:07;;;;;;;12.48;4.93;;;16.90;99.90;;;;;;5039774;28;20142;-78
2023/07/02 06:22:33;;;;;;;10.57;4.20;;;16.90;99.90;;;;;;5047076;28;20040;-79
2023/07/02 06:24:59;;;;;;;13.65;4.38;;;17.00;99.90;;;;;;5050194;28;20045;-79
2023/07/02 06:27:24;;;;;;;9.45;4.25;;;16.90;99.90;;;;;;5050479;28;20389;-78
2023/07/02 06:29:51;;;;;;;12.88;4.85;;;16.90;99.90;;;;;;5036696;28;20076;-78
2023/07/02 06:32:17;;;;;;;11.35;4.50;;;16.90;99.90;;;;;;5050056;28;20045;-78
2023/07/02 06:34:43;;;;;;;13.13;4.90;;;17.00;99.90;;;;;;5049972;28;20045;-78
2023/07/02 06:37:08;;;;;;;10.77;4.30;;;17.00;99.90;;;;;;5042036;28;20037;-78
2023/07/02 06:39:34;;;;;;;14.60;4.72;;;17.10;99.90;;;;;;5042827;28;20098;-78
2023/07/02 06:42:00;;;;;;;8.95;4.00;;;17.10;99.90;;;;;;5039497;28;20041;-78
2023/07/02 06:44:25;;;;;;;12.07;3.85;;;17.10;99.90;;;;;;5044802;28;20043;-78
2023/07/02 06:46:51;;;;;;;12.40;4.97;;;17.10;99.90;;;;;;5041086;28;20130;-78
2023/07/02 06:49:17;;;;;;;9.80;3.60;;;;;;;;;;5039878;28;20195;-78
2023/07/02 06:51:43;;;;;;;10.43;5.13;;;17.20;99.90;;;;;;5041592;28;20033;-78
2023/07/02 06:54:09;;;;;;;11.50;4.70;;;;;;;;;;5038289;28;20044;-79
2023/07/02 06:56:34;;;;;;;8.73;4.30;;;17.30;99.90;;;;;;5070073;28;20041;-78
2023/07/02 06:59:01;;;;;;;7.47;3.00;;;17.40;99.90;;;;;;5069919;28;20103;-77
2023/07/02 07:01:27;;;;;;;10.45;4.72;;;17.40;99.90;;;;;;5041162;28;20122;-77
2023/07/02 07:03:52;;;;;;;15.65;5.22;;;17.30;99.90;;;;;;5041818;28;20506;-77
2023/07/02 07:06:18;;;;;;;10.30;4.03;;;;;;;;;;5042289;28;20574;-78
2023/07/02 07:08:44;;;;;;;13.23;5.05;;;;;;;;;;5042546;28;20048;-78
2023/07/02 07:11:10;;;;;;;13.60;5.13;;;;;;;;;;5038377;28;21486;-78
2023/07/02 07:13:37;;;;;;;13.85;5.53;;;;;;;;;;5042147;28;20037;-78
2023/07/02 07:16:03;;;;;;;13.55;5.07;;;;;;;;;;5042775;28;20171;-78
2023/07/02 07:18:29;;;;;;;14.50;5.65;;;;;;;;;;5041524;28;20136;-77
2023/07/02 07:20:55;;;;;;;14.38;4.85;;;;;;;;;;5044294;28;20484;-77
2023/07/02 07:23:21;;;;;;;10.60;5.00;;;;;;;;;;5045230;28;20052;-77
2023/07/02 07:25:47;;;;;;;9.80;4.15;;;17.10;99.90;;;;;;5047150;28;20053;-77
2023/07/02 07:28:16;;;;;;;13.85;5.53;;;;;;;;;;5076675;28;20041;-76
2023/07/02 07:30:43;;;;;;;8.38;4.70;;;;;;;;;;5041946;28;20044;-77
2023/07/02 07:33:10;;;;;;;12.82;4.72;;;;;;;;;;5043953;28;20392;-77
2023/07/02 07:35:36;;;;;;;13.55;5.13;;;17.20;99.90;;;;;;5044636;28;20048;-77
2023/07/02 07:38:02;;;;;;;14.93;5.65;;;17.50;99.90;;;;;;5037812;28;20427;-76
2023/07/02 07:40:27;;;;;;;12.70;4.65;;;17.50;99.90;;;;;;5044512;28;20128;-77
2023/07/02 07:42:53;;;;;;;13.65;4.53;;;17.60;99.90;;;;;;5045859;28;20049;-77
2023/07/02 07:45:19;;;;;;;12.40;3.80;;;17.70;99.90;;;;;;5044128;28;20041;-77
2023/07/02 07:47:44;;;;;;;13.15;4.50;;;17.70;99.90;;;;;;5045120;28;20437;-77
2023/07/02 07:50:11;;;;;;;9.93;4.22;;;;;;;;;;5041766;28;20045;-77
2023/07/02 07:52:40;;;;;;;11.05;4.55;;;;;;;;;;5043333;28;20120;-76
2023/07/02 07:55:06;;;;;;;13.43;4.68;;;;;;;;;;5045745;28;20033;-77
2023/07/02 07:57:32;;;;;;;11.82;5.03;;;;;;;;;;5046795;28;20100;-77
2023/07/02 07:59:58;;;;;;;14.45;5.00;;;;;;;;;;5044807;28;20041;-77
2023/07/02 08:02:24;;;;;;;15.68;5.20;;;;;;;;;;5041364;28;20041;-77
2023/07/02 08:04:50;;;;;;;15.02;4.07;;;;;;;;;;5043148;28;20362;-77
2023/07/02 08:07:16;;;;;;;14.43;4.75;;;;;;;;;;5043262;28;20481;-77
2023/07/02 08:09:42;;;;;;;10.70;4.13;;;;;;;;;;5045511;28;20044;-76
2023/07/02 08:12:08;;;;;;;12.30;4.53;;;;;;;;;;5041890;28;20049;-78
2023/07/02 08:14:38;;;;;;;11.85;4.57;;;;;;;;;;5046946;28;20037;-78
2023/07/02 08:17:04;;;;;;;12.70;4.75;;;;;;;;;;5049743;28;20456;-77
2023/07/02 08:19:30;;;;;;;13.10;4.30;;;;;;;;;;5049004;28;20043;-77
2023/07/02 08:21:56;;;;;;;15.13;5.93;;;;;;;;;;5049059;28;20053;-77
2023/07/02 08:24:22;;;;;;;11.93;4.93;;;;;;;;;;5044745;28;20546;-77
2023/07/02 08:26:49;;;;;;;13.68;4.07;;;;;;;;;;5038018;28;20133;-76
2023/07/02 08:29:16;;;;;;;8.77;4.13;;;;;;;;;;5046847;28;20092;-75
2023/07/02 08:31:43;;;;;;;11.43;4.40;;;;;;;;;;5042146;28;20041;-75
2023/07/02 08:34:09;;;;;;;10.88;4.45;;;;;;;;;;5043108;28;20053;-76
2023/07/02 08:36:38;;;;;;;11.90;4.45;;;;;;;;;;5070295;28;20095;-77
2023/07/02 08:39:04;;;;;;;12.68;5.05;;;;;;;;;;5053997;28;20072;-76
2023/07/02 08:41:31;;;;;;;10.30;4.45;;;;;;;;;;5052034;28;20041;-76
2023/07/02 08:43:59;;;;;;;10.18;3.70;;;;;;;;;;5051824;28;20088;-75
2023/07/02 08:46:25;;;;;;;10.10;4.45;;;;;;;;;;5039373;28;20496;-76
2023/07/02 08:48:51;;;;;;;11.68;3.85;;;;;;;;;;5044213;28;20040;-76
2023/07/02 08:51:17;;;;;;;11.90;4.70;;;;;;;;;;5049417;28;20041;-77
2023/07/02 08:53:43;;;;;;;10.00;3.60;;;;;;;;;;5052808;28;20123;-77
2023/07/02 08:56:09;;;;;;;12.25;4.50;;;;;;;;;;5049852;28;20037;-75
2023/07/02 08:58:35;;;;;;;14.02;4.78;;;;;;;;;;5038897;28;20051;-75
2023/07/02 09:01:08;;;;;;;8.60;4.13;;;;;;;;;;5037631;28;20412;-75
2023/07/02 09:03:36;;;;;;;12.43;4.88;;;;;;;;;;5047336;28;20522;-76
2023/07/02 09:06:03;;;;;;;12.07;4.45;;;;;;;;;;5041760;28;20176;-77
2023/07/02 09:08:29;;;;;;;14.93;5.00;;;;;;;;;;5043876;28;20053;-75
2023/07/02 09:11:05;;;;;;;10.07;5.00;;;;;;;;;;5043629;28;20489;-75
2023/07/02 09:13:31;;;;;;;13.85;4.97;;;;;;;;;;5042990;28;20473;-77
2023/07/02 09:15:57;;;;;;;12.27;4.28;;;;;;;;;;5039602;28;20037;-74
2023/07/02 09:18:27;;;;;;;15.05;5.30;;;;;;;;;;5035703;28;20041;-76
2023/07/02 09:20:56;;;;;;;13.52;4.93;;;;;;;;;;5042061;28;20044;-75
2023/07/02 09:23:22;;;;;;;14.93;7.18;;;;;;;;;;5040605;28;20107;-75
2023/07/02 09:25:48;;;;;;;15.10;5.07;;;;;;;;;;5043016;28;20041;-75
2023/07/02 09:28:25;;;;;;;11.70;4.28;;;;;;;;;;5040356;28;20048;-74
2023/07/02 09:30:55;;;;;;;10.40;4.68;;;;;;;;;;5045732;28;20084;-75
2023/07/02 09:33:23;;;;;;;10.93;4.80;;;;;;;;;;5041171;28;20098;-75
2023/07/02 09:35:51;;;;;;;11.20;4.32;;;;;;;;;;5043991;28;20044;-75
2023/07/02 09:38:17;;;;;;;13.93;5.28;;;;;;;;;;5044332;28;20077;-75
2023/07/02 09:40:50;;;;;;;12.50;5.45;;;;;;;;;;5041387;28;20040;-75
2023/07/02 09:43:16;;;;;;;20.95;6.10;;;;;;;;;;5042815;28;20072;-76
2023/07/02 09:45:56;;;;;;;16.23;5.28;;;;;;;;;;5047544;28;20045;-77
2023/07/02 09:48:25;;;;;;;6.75;3.97;;;;;;;;;;5043586;28;20033;-75
2023/07/02 09:50:52;;;;;;;9.40;4.32;;;;;;;;;;5042671;28;20081;-76
2023/07/02 09:53:18;;;;;;;11.57;3.97;;;;;;;;;;5043505;28;20514;-76
2023/07/02 09:55:44;;;;;;;7.97;3.90;;;;;;;;;;5041002;28;20120;-76
2023/07/02 09:58:14;;;;;;;9.10;4.60;;;;;;;;;;5039357;28;20044;-76
2023/07/02 10:00:41;;;;;;;12.55;4.40;;;;;;;;;;5041524;28;20054;-77
2023/07/02 10:03:07;;;;;;;14.13;4.47;;;;;;;;;;5038103;28;20429;-75
2023/07/02 10:05:33;;;;;;;12.57;3.83;;;;;;;;;;5039932;28;20045;-75
2023/07/02 10:08:13;;;;;;;8.48;4.30;;;;;;;;;;5045112;28;20048;-75
2023/07/02 10:10:39;;;;;;;12.90;4.25;;;17.70;99.90;;;;;;5057593;28;20088;-75
2023/07/02 10:13:05;;;;;;;10.70;3.72;;;18.40;99.90;;;;;;5050710;28;20458;-76
2023/07/02 10:15:31;;;;;;;11.23;4.75;;;;;;;;;;5042969;28;20124;-76
2023/07/02 10:17:59;;;;;;;12.07;4.13;;;18.40;99.90;;;;;;5045225;28;20091;-75
2023/07/02 10:20:39;;;;;;;9.50;3.28;;;18.50;99.90;;;;;;5041585;28;20548;-75
2023/07/02 10:23:07;;;;;;;10.18;4.03;;;18.40;99.90;;;;;;5042660;28;20059;-76
2023/07/02 10:25:38;;;;;;;8.63;3.95;;;18.40;99.90;;;;;;5072119;28;20054;-76
2023/07/02 10:28:20;;;;;;;7.32;3.75;;;18.40;99.90;;;;;;5072978;28;20044;-76
2023/07/02 10:30:46;;;;;;;10.50;4.05;;;18.50;99.90;;;;;;5040517;28;20036;-75
2023/07/02 10:33:14;;;;;;;9.35;3.53;;;18.70;99.90;;;;;;5045050;28;20029;-75
2023/07/02 10:35:42;;;;;;;11.40;4.50;;;18.70;99.90;;;;;;5069812;28;20159;-76
2023/07/02 10:38:14;;;;;;;12.38;3.78;;;18.60;99.90;;;;;;5041148;28;20045;-76
2023/07/02 10:40:42;;;;;;;10.05;3.60;;;18.70;99.90;;;;;;5041100;28;20045;-75
2023/07/02 10:43:08;;;;;;;7.65;3.88;;;18.80;99.90;;;;;;5039745;28;20067;-77
2023/07/02 10:45:35;;;;;;;8.20;3.83;;;18.90;99.90;;;;;;5037664;28;20083;-76
2023/07/02 10:48:13;;;;;;;10.30;3.78;;;19.00;99.90;;;;;;5045799;28;20175;-76
2023/07/02 10:50:39;;;;;;;9.57;3.83;;;19.10;99.90;;;;;;5043704;28;20060;-75
2023/07/02 10:53:05;;;;;;;9.88;4.05;;;19.20;99.90;;;;;;5041967;28;20053;-77
2023/07/02 10:55:31;;;;;;;8.02;3.95;;;19.20;99.90;;;;;;5038792;28;20083;-76
2023/07/02 10:58:23;;;;;;;10.30;4.28;;;19.20;99.90;;;;;;5038214;28;20041;-76
2023/07/02 11:00:50;;;;;;;7.38;3.38;;;19.30;99.90;;;;;;5034361;28;20045;-76
2023/07/02 11:03:21;;;;;;;7.90;3.05;;;19.40;99.90;;;;;;5043505;28;20076;-75
2023/07/02 11:05:48;;;;;;;9.75;3.83;;;19.40;99.90;;;;;;5040383;28;20397;-76
2023/07/02 11:08:14;;;;;;;11.75;4.90;;;19.40;99.90;;;;;;5032747;28;20037;-79
2023/07/02 11:10:40;;;;;;;8.48;3.55;;;19.30;99.90;;;;;;5041045;28;20041;-76
2023/07/02 11:13:13;;;;;;;11.65;4.15;;;19.40;99.90;;;;;;5035569;28;20048;-75
2023/07/02 11:15:41;;;;;;;11.93;4.53;;;19.50;99.90;;;;;;5044000;28;20045;-74
2023/07/02 11:18:11;;;;;;;13.20;4.00;;;19.50;99.90;;;;;;5040409;28;20052;-75
2023/07/02 11:20:37;;;;;;;8.05;3.67;;;19.50;99.90;;;;;;5045682;28;20061;-75
2023/07/02 11:23:03;;;;;;;10.73;4.05;;;19.50;99.90;;;;;;5041667;28;20079;-75
2023/07/02 11:25:29;;;;;;;12.45;4.43;;;19.60;99.90;;;;;;5044829;28;20373;-75
2023/07/02 11:28:04;;;;;;;12.20;4.30;;;19.60;99.90;;;;;;5052086;28;20591;-75
2023/07/02 11:30:30;;;;;;;10.73;4.32;;;19.60;99.90;;;;;;5047148;28;20048;-74
2023/07/02 11:32:56;;;;;;;11.07;4.18;;;19.70;99.90;;;;;;5065201;28;20056;-75
2023/07/02 11:35:22;;;;;;;12.50;4.57;;;19.70;99.90;;;;;;5039950;28;20056;-76
2023/07/02 11:37:49;;;;;;;8.57;4.30;;;19.80;99.90;;;;;;5041283;28;20044;-76
2023/07/02 11:40:15;;;;;;;11.25;4.57;;;;;;;;;;5039520;28;20041;-76
2023/07/02 11:42:41;;;;;;;11.45;4.32;;;19.60;99.90;;;;;;5045928;28;20130;-76
2023/07/02 11:45:07;;;;;;;11.88;5.05;;;19.60;99.90;;;;;;5039514;28;20480;-77
2023/07/02 11:47:33;;;;;;;10.57;4.35;;;19.60;99.90;;;;;;5038474;28;20397;-77
2023/07/02 11:49:59;;;;;;;16.10;6.35;;;;;;;;;;5041269;28;20037;-76
2023/07/02 11:52:25;;;;;;;11.32;4.80;;;20.00;99.90;;;;;;5041908;28;21060;-76
2023/07/02 11:54:51;;;;;;;11.07;5.00;;;20.00;99.90;;;;;;5046107;28;20047;-77
2023/07/02 11:57:17;;;;;;;12.70;4.80;;;19.80;99.90;;;;;;5042385;28;20041;-77
2023/07/02 11:59:42;;;;;;;8.65;3.22;;;19.90;99.90;;;;;;5039616;28;20044;-76
2023/07/02 12:02:08;;;;;;;9.27;4.60;;;19.90;99.90;;;;;;5043699;28;20033;-77
2023/07/02 12:04:34;;;;;;;13.23;5.25;;;20.00;99.90;;;;;;5050059;28;20111;-77
2023/07/02 12:07:01;;;;;;;8.68;4.53;;;20.10;99.90;;;;;;5051467;28;20076;-76
2023/07/02 12:09:27;;;;;;;12.13;4.53;;;20.30;99.90;;;;;;5040969;28;20796;-75
2023/07/02 12:11:53;;;;;;;11.18;4.68;;;20.40;99.90;;;;;;5044547;28;20239;-76
2023/07/02 12:14:19;;;;;;;10.35;4.28;;;20.20;99.90;;;;;;5045269;28;20041;-76
2023/07/02 12:16:44;;;;;;;11.52;4.75;;;20.20;99.90;;;;;;5050340;28;20037;-76
2023/07/02 12:19:10;;;;;;;13.43;5.28;;;20.30;99.90;;;;;;5050188;28;20160;-76
2023/07/02 12:21:36;;;;;;;9.82;4.60;;;20.50;99.90;;;;;;5047971;28;20073;-76
2023/07/02 12:24:02;;;;;;;10.68;4.55;;;20.50;99.90;;;;;;5052513;28;20075;-76
2023/07/02 12:26:28;;;;;;;9.23;4.75;;;20.70;99.90;;;;;;5072638;28;20045;-77
2023/07/02 12:28:54;;;;;;;11.85;4.45;;;20.70;99.90;;;;;;5047987;28;20041;-76
2023/07/02 12:31:20;;;;;;;15.07;5.53;;;20.60;99.90;;;;;;5047599;28;20048;-76
2023/07/02 12:33:46;;;;;;;10.48;4.97;;;20.40;99.90;;;;;;5043920;28;20068;-76
2023/07/02 12:36:12;;;;;;;13.23;4.88;;;20.20;99.90;;;;;;5045282;28;20037;-76
2023/07/02 12:38:37;;;;;;;15.38;4.90;;;20.20;99.90;;;;;;5050792;28;20049;-76
2023/07/02 12:41:03;;;;;;;10.82;4.63;;;20.10;99.90;;;;;;5045945;28;20362;-76
2023/07/02 12:43:29;;;;;;;15.13;5.22;;;20.20;99.90;;;;;;5043339;28;20049;-77
2023/07/02 12:45:54;;;;;;;9.30;4.38;;;20.10;99.90;;;;;;5037849;28;20048;-77
2023/07/02 12:48:20;;;;;;;9.23;3.67;;;20.30;99.90;;;;;;5047136;28;20092;-76
2023/07/02 12:50:56;;;;;;;10.05;3.92;;;20.30;99.90;;;;;;5048322;28;20159;-77
2023/07/02 12:53:23;;;;;;;12.32;4.85;;;20.20;99.90;;;;;;5044146;28;20037;-77
2023/07/02 12:55:48;;;;;;;6.78;3.85;;;20.00;99.90;;;;;;5047498;28;20048;-76
2023/07/02 12:58:14;;;;;;;10.65;4.65;;;20.10;99.90;;;;;;5044343;28;20041;-76
2023/07/02 13:00:39;;;;;;;15.85;5.18;;;20.10;99.90;;;;;;5042379;28;20041;-77
2023/07/02 13:03:09;;;;;;;11.45;4.38;;;20.30;99.90;;;;;;5048831;28;20069;-76